Terminal Aerodrome Forecast
Issued by NWS Billings, MT

Home | Current Version | Previous Version | Graphics & Text | Print | Product List | Glossary On
Versions: 1 2 3 4 5 6 7 8 9 10 11 12 13 14 15 16 17 18 19 20 21 22 23 24 25 26 27 28 29
018
FTUS45 KBYZ 112322
TAFMLS
TAF
KMLS 112322Z 1200/1224 35011KT P6SM SCT020 SCT040
     FM120300 VRB06KT P6SM VCFG SCT005 BKN030
     FM120900 VRB06KT 3SM BR SCT003 OVC015
     FM121400 08009KT P6SM VCFG SCT010 OVC025
     FM122100 11011KT P6SM VCSH SCT040 OVC090=

USA.gov is the U.S. government's official web portal to all federal, state and local government web resources and services.